sensor_id;sensor_type;location;lat;lon;timestamp;P1;durP1;ratioP1;P2;durP2;ratioP2
32108;SDS011;18624;50.042;8.436;2023-10-09T00:01:44;13.73;;;8.63;;
32108;SDS011;18624;50.042;8.436;2023-10-09T00:04:12;16.33;;;9.90;;
32108;SDS011;18624;50.042;8.436;2023-10-09T00:06:40;18.40;;;10.25;;
32108;SDS011;18624;50.042;8.436;2023-10-09T00:09:10;15.73;;;9.38;;
32108;SDS011;18624;50.042;8.436;2023-10-09T00:11:51;17.27;;;9.85;;
32108;SDS011;18624;50.042;8.436;2023-10-09T00:14:28;14.43;;;8.60;;
32108;SDS011;18624;50.042;8.436;2023-10-09T00:16:56;16.50;;;9.45;;
32108;SDS011;18624;50.042;8.436;2023-10-09T00:19:48;14.85;;;9.40;;
32108;SDS011;18624;50.042;8.436;2023-10-09T00:22:18;15.40;;;8.82;;
32108;SDS011;18624;50.042;8.436;2023-10-09T00:24:53;13.90;;;8.63;;
32108;SDS011;18624;50.042;8.436;2023-10-09T00:27:39;16.63;;;9.38;;
32108;SDS011;18624;50.042;8.436;2023-10-09T00:30:14;14.05;;;8.38;;
32108;SDS011;18624;50.042;8.436;2023-10-09T00:32:48;16.50;;;9.82;;
32108;SDS011;18624;50.042;8.436;2023-10-09T00:35:37;17.85;;;10.45;;
32108;SDS011;18624;50.042;8.436;2023-10-09T00:38:20;19.10;;;9.90;;
32108;SDS011;18624;50.042;8.436;2023-10-09T00:40:47;16.33;;;9.07;;
32108;SDS011;18624;50.042;8.436;2023-10-09T00:43:23;17.40;;;9.45;;
32108;SDS011;18624;50.042;8.436;2023-10-09T00:45:54;16.05;;;9.15;;
32108;SDS011;18624;50.042;8.436;2023-10-09T00:48:21;17.33;;;9.07;;
32108;SDS011;18624;50.042;8.436;2023-10-09T00:50:57;19.77;;;9.65;;
32108;SDS011;18624;50.042;8.436;2023-10-09T00:53:27;20.55;;;10.52;;
32108;SDS011;18624;50.042;8.436;2023-10-09T00:56:01;16.70;;;8.73;;
32108;SDS011;18624;50.042;8.436;2023-10-09T00:58:47;14.90;;;8.65;;
32108;SDS011;18624;50.042;8.436;2023-10-09T01:01:22;16.00;;;9.10;;
32108;SDS011;18624;50.042;8.436;2023-10-09T01:03:54;16.60;;;9.38;;
32108;SDS011;18624;50.042;8.436;2023-10-09T01:06:21;14.85;;;9.23;;
32108;SDS011;18624;50.042;8.436;2023-10-09T01:08:53;17.70;;;8.82;;
32108;SDS011;18624;50.042;8.436;2023-10-09T01:11:35;18.25;;;10.45;;
32108;SDS011;18624;50.042;8.436;2023-10-09T01:14:13;14.63;;;8.57;;
32108;SDS011;18624;50.042;8.436;2023-10-09T01:16:42;16.58;;;9.35;;
32108;SDS011;18624;50.042;8.436;2023-10-09T01:19:10;14.95;;;8.82;;
32108;SDS011;18624;50.042;8.436;2023-10-09T01:21:39;15.88;;;9.13;;
32108;SDS011;18624;50.042;8.436;2023-10-09T01:24:06;13.82;;;8.38;;
32108;SDS011;18624;50.042;8.436;2023-10-09T01:26:36;16.20;;;8.73;;
32108;SDS011;18624;50.042;8.436;2023-10-09T01:29:11;15.93;;;9.25;;
32108;SDS011;18624;50.042;8.436;2023-10-09T01:31:50;14.85;;;9.23;;
32108;SDS011;18624;50.042;8.436;2023-10-09T01:34:18;14.37;;;8.63;;
32108;SDS011;18624;50.042;8.436;2023-10-09T01:36:46;13.32;;;8.15;;
32108;SDS011;18624;50.042;8.436;2023-10-09T01:39:15;12.90;;;7.60;;
32108;SDS011;18624;50.042;8.436;2023-10-09T01:41:50;16.35;;;9.00;;
32108;SDS011;18624;50.042;8.436;2023-10-09T01:44:27;14.55;;;8.73;;
32108;SDS011;18624;50.042;8.436;2023-10-09T01:47:06;19.40;;;9.25;;
32108;SDS011;18624;50.042;8.436;2023-10-09T01:49:40;17.23;;;9.85;;
32108;SDS011;18624;50.042;8.436;2023-10-09T01:52:10;15.70;;;9.90;;
32108;SDS011;18624;50.042;8.436;2023-10-09T01:54:42;17.13;;;9.68;;
32108;SDS011;18624;50.042;8.436;2023-10-09T01:57:16;18.48;;;9.68;;
32108;SDS011;18624;50.042;8.436;2023-10-09T01:59:51;18.63;;;10.07;;
32108;SDS011;18624;50.042;8.436;2023-10-09T02:02:21;15.75;;;9.45;;
32108;SDS011;18624;50.042;8.436;2023-10-09T02:05:06;17.13;;;9.68;;
32108;SDS011;18624;50.042;8.436;2023-10-09T02:07:39;16.27;;;9.93;;
32108;SDS011;18624;50.042;8.436;2023-10-09T02:10:18;15.63;;;9.43;;
32108;SDS011;18624;50.042;8.436;2023-10-09T02:12:59;18.88;;;9.88;;
32108;SDS011;18624;50.042;8.436;2023-10-09T02:15:33;18.05;;;10.05;;
32108;SDS011;18624;50.042;8.436;2023-10-09T02:18:11;17.75;;;9.38;;
32108;SDS011;18624;50.042;8.436;2023-10-09T02:20:48;20.23;;;10.18;;
32108;SDS011;18624;50.042;8.436;2023-10-09T02:23:41;16.52;;;9.02;;
32108;SDS011;18624;50.042;8.436;2023-10-09T02:26:11;17.90;;;9.38;;
32108;SDS011;18624;50.042;8.436;2023-10-09T02:28:51;18.15;;;9.80;;
32108;SDS011;18624;50.042;8.436;2023-10-09T02:31:26;17.70;;;9.48;;
32108;SDS011;18624;50.042;8.436;2023-10-09T02:34:02;17.52;;;8.93;;
32108;SDS011;18624;50.042;8.436;2023-10-09T02:36:31;19.92;;;9.55;;
32108;SDS011;18624;50.042;8.436;2023-10-09T02:38:57;16.55;;;9.02;;
32108;SDS011;18624;50.042;8.436;2023-10-09T02:41:25;19.20;;;10.85;;
32108;SDS011;18624;50.042;8.436;2023-10-09T02:43:55;15.45;;;9.77;;
32108;SDS011;18624;50.042;8.436;2023-10-09T02:46:21;23.67;;;11.80;;
32108;SDS011;18624;50.042;8.436;2023-10-09T02:48:57;18.08;;;10.95;;
32108;SDS011;18624;50.042;8.436;2023-10-09T02:51:24;20.55;;;11.50;;
32108;SDS011;18624;50.042;8.436;2023-10-09T02:53:57;18.83;;;10.57;;
32108;SDS011;18624;50.042;8.436;2023-10-09T02:56:34;19.88;;;10.65;;
32108;SDS011;18624;50.042;8.436;2023-10-09T02:59:14;18.98;;;10.63;;
32108;SDS011;18624;50.042;8.436;2023-10-09T03:01:40;17.25;;;10.02;;
32108;SDS011;18624;50.042;8.436;2023-10-09T03:04:07;16.13;;;10.25;;
32108;SDS011;18624;50.042;8.436;2023-10-09T03:06:37;16.33;;;9.20;;
32108;SDS011;18624;50.042;8.436;2023-10-09T03:09:19;16.70;;;9.50;;
32108;SDS011;18624;50.042;8.436;2023-10-09T03:11:57;16.38;;;9.05;;
32108;SDS011;18624;50.042;8.436;2023-10-09T03:14:33;18.95;;;9.20;;
32108;SDS011;18624;50.042;8.436;2023-10-09T03:17:04;16.50;;;8.85;;
32108;SDS011;18624;50.042;8.436;2023-10-09T03:19:33;17.20;;;10.00;;
32108;SDS011;18624;50.042;8.436;2023-10-09T03:22:04;18.00;;;10.93;;
32108;SDS011;18624;50.042;8.436;2023-10-09T03:24:37;16.05;;;9.60;;
32108;SDS011;18624;50.042;8.436;2023-10-09T03:27:16;21.35;;;11.27;;
32108;SDS011;18624;50.042;8.436;2023-10-09T03:29:42;17.10;;;9.90;;
32108;SDS011;18624;50.042;8.436;2023-10-09T03:32:15;15.90;;;9.07;;
32108;SDS011;18624;50.042;8.436;2023-10-09T03:34:42;16.98;;;9.50;;
32108;SDS011;18624;50.042;8.436;2023-10-09T03:37:09;14.77;;;8.85;;
32108;SDS011;18624;50.042;8.436;2023-10-09T03:39:48;15.90;;;9.65;;
32108;SDS011;18624;50.042;8.436;2023-10-09T03:42:17;19.70;;;8.52;;
32108;SDS011;18624;50.042;8.436;2023-10-09T03:44:48;16.15;;;9.13;;
32108;SDS011;18624;50.042;8.436;2023-10-09T03:47:24;14.68;;;8.27;;
32108;SDS011;18624;50.042;8.436;2023-10-09T03:49:51;21.02;;;9.98;;
32108;SDS011;18624;50.042;8.436;2023-10-09T03:52:19;17.90;;;9.70;;
32108;SDS011;18624;50.042;8.436;2023-10-09T03:54:46;17.42;;;9.65;;
32108;SDS011;18624;50.042;8.436;2023-10-09T03:57:13;22.08;;;10.05;;
32108;SDS011;18624;50.042;8.436;2023-10-09T03:59:47;18.30;;;10.40;;
32108;SDS011;18624;50.042;8.436;2023-10-09T04:02:14;16.45;;;9.52;;
32108;SDS011;18624;50.042;8.436;2023-10-09T04:04:42;20.05;;;11.05;;
32108;SDS011;18624;50.042;8.436;2023-10-09T04:07:14;16.08;;;9.20;;
32108;SDS011;18624;50.042;8.436;2023-10-09T04:09:42;16.88;;;8.88;;
32108;SDS011;18624;50.042;8.436;2023-10-09T04:12:13;17.52;;;10.13;;
32108;SDS011;18624;50.042;8.436;2023-10-09T04:14:46;17.02;;;10.23;;
32108;SDS011;18624;50.042;8.436;2023-10-09T04:17:21;18.58;;;10.68;;
32108;SDS011;18624;50.042;8.436;2023-10-09T04:19:51;16.60;;;9.40;;
32108;SDS011;18624;50.042;8.436;2023-10-09T04:22:37;16.30;;;9.90;;
32108;SDS011;18624;50.042;8.436;2023-10-09T04:25:19;19.42;;;10.82;;
32108;SDS011;18624;50.042;8.436;2023-10-09T04:27:53;17.30;;;10.25;;
32108;SDS011;18624;50.042;8.436;2023-10-09T04:30:38;18.70;;;9.38;;
32108;SDS011;18624;50.042;8.436;2023-10-09T04:33:13;17.80;;;9.68;;
32108;SDS011;18624;50.042;8.436;2023-10-09T04:36:07;23.55;;;11.55;;
32108;SDS011;18624;50.042;8.436;2023-10-09T04:38:52;16.67;;;9.55;;
32108;SDS011;18624;50.042;8.436;2023-10-09T04:41:22;19.55;;;11.65;;
32108;SDS011;18624;50.042;8.436;2023-10-09T04:43:57;19.00;;;10.32;;
32108;SDS011;18624;50.042;8.436;2023-10-09T04:46:43;18.45;;;10.77;;
32108;SDS011;18624;50.042;8.436;2023-10-09T04:49:11;17.25;;;10.70;;
32108;SDS011;18624;50.042;8.436;2023-10-09T04:51:54;19.92;;;9.90;;
32108;SDS011;18624;50.042;8.436;2023-10-09T04:54:44;17.73;;;10.20;;
32108;SDS011;18624;50.042;8.436;2023-10-09T04:57:31;18.42;;;10.27;;
32108;SDS011;18624;50.042;8.436;2023-10-09T05:00:08;19.05;;;9.75;;
32108;SDS011;18624;50.042;8.436;2023-10-09T05:02:54;20.77;;;11.02;;
32108;SDS011;18624;50.042;8.436;2023-10-09T05:05:26;18.85;;;10.88;;
32108;SDS011;18624;50.042;8.436;2023-10-09T05:08:14;17.15;;;10.50;;
32108;SDS011;18624;50.042;8.436;2023-10-09T05:10:49;20.48;;;9.77;;
32108;SDS011;18624;50.042;8.436;2023-10-09T05:13:32;15.70;;;9.38;;
32108;SDS011;18624;50.042;8.436;2023-10-09T05:16:16;17.13;;;9.88;;
32108;SDS011;18624;50.042;8.436;2023-10-09T05:18:55;17.40;;;10.27;;
32108;SDS011;18624;50.042;8.436;2023-10-09T05:21:37;17.00;;;10.77;;
32108;SDS011;18624;50.042;8.436;2023-10-09T05:24:08;21.27;;;10.27;;
32108;SDS011;18624;50.042;8.436;2023-10-09T05:26:44;20.27;;;10.82;;
32108;SDS011;18624;50.042;8.436;2023-10-09T05:29:22;15.98;;;9.77;;
32108;SDS011;18624;50.042;8.436;2023-10-09T05:34:34;17.42;;;9.80;;
32108;SDS011;18624;50.042;8.436;2023-10-09T05:37:03;17.23;;;10.75;;
32108;SDS011;18624;50.042;8.436;2023-10-09T05:39:49;15.63;;;9.05;;
32108;SDS011;18624;50.042;8.436;2023-10-09T05:42:28;15.52;;;9.20;;
32108;SDS011;18624;50.042;8.436;2023-10-09T05:45:13;17.58;;;10.98;;
32108;SDS011;18624;50.042;8.436;2023-10-09T05:47:52;18.48;;;11.02;;
32108;SDS011;18624;50.042;8.436;2023-10-09T05:50:21;16.40;;;9.88;;
32108;SDS011;18624;50.042;8.436;2023-10-09T05:52:48;18.52;;;9.73;;
32108;SDS011;18624;50.042;8.436;2023-10-09T05:55:19;14.20;;;8.55;;
32108;SDS011;18624;50.042;8.436;2023-10-09T05:58:05;19.92;;;10.45;;
32108;SDS011;18624;50.042;8.436;2023-10-09T06:00:50;14.90;;;9.35;;
32108;SDS011;18624;50.042;8.436;2023-10-09T06:03:35;19.58;;;10.63;;
32108;SDS011;18624;50.042;8.436;2023-10-09T06:06:25;16.63;;;9.82;;
32108;SDS011;18624;50.042;8.436;2023-10-09T06:09:08;17.15;;;9.82;;
32108;SDS011;18624;50.042;8.436;2023-10-09T06:11:43;14.98;;;9.85;;
32108;SDS011;18624;50.042;8.436;2023-10-09T06:14:16;16.70;;;9.52;;
32108;SDS011;18624;50.042;8.436;2023-10-09T06:16:56;14.63;;;9.52;;
32108;SDS011;18624;50.042;8.436;2023-10-09T06:19:24;16.33;;;10.07;;
32108;SDS011;18624;50.042;8.436;2023-10-09T06:21:55;14.82;;;9.15;;
32108;SDS011;18624;50.042;8.436;2023-10-09T06:24:39;21.48;;;11.20;;
32108;SDS011;18624;50.042;8.436;2023-10-09T06:27:21;16.23;;;9.40;;
32108;SDS011;18624;50.042;8.436;2023-10-09T06:29:57;21.25;;;10.77;;
32108;SDS011;18624;50.042;8.436;2023-10-09T06:32:40;18.63;;;9.15;;
32108;SDS011;18624;50.042;8.436;2023-10-09T06:35:26;19.70;;;10.57;;
32108;SDS011;18624;50.042;8.436;2023-10-09T06:37:59;21.02;;;10.48;;
32108;SDS011;18624;50.042;8.436;2023-10-09T06:40:34;18.30;;;10.82;;
32108;SDS011;18624;50.042;8.436;2023-10-09T06:43:19;17.88;;;10.00;;
32108;SDS011;18624;50.042;8.436;2023-10-09T06:45:50;18.45;;;10.52;;
32108;SDS011;18624;50.042;8.436;2023-10-09T06:48:35;22.35;;;11.05;;
32108;SDS011;18624;50.042;8.436;2023-10-09T06:51:05;18.48;;;11.15;;
32108;SDS011;18624;50.042;8.436;2023-10-09T06:53:57;22.98;;;12.18;;
32108;SDS011;18624;50.042;8.436;2023-10-09T06:56:32;17.92;;;10.52;;
32108;SDS011;18624;50.042;8.436;2023-10-09T06:59:00;20.02;;;10.50;;
32108;SDS011;18624;50.042;8.436;2023-10-09T07:01:41;21.17;;;11.32;;
32108;SDS011;18624;50.042;8.436;2023-10-09T07:04:13;19.10;;;11.68;;
32108;SDS011;18624;50.042;8.436;2023-10-09T07:06:50;17.90;;;11.48;;
32108;SDS011;18624;50.042;8.436;2023-10-09T07:09:18;18.83;;;11.30;;
32108;SDS011;18624;50.042;8.436;2023-10-09T07:11:50;17.67;;;10.70;;
32108;SDS011;18624;50.042;8.436;2023-10-09T07:14:19;18.90;;;11.02;;
32108;SDS011;18624;50.042;8.436;2023-10-09T07:17:05;18.67;;;11.13;;
32108;SDS011;18624;50.042;8.436;2023-10-09T07:19:49;19.30;;;11.40;;
32108;SDS011;18624;50.042;8.436;2023-10-09T07:22:17;17.30;;;11.50;;
32108;SDS011;18624;50.042;8.436;2023-10-09T07:24:50;17.33;;;10.90;;
32108;SDS011;18624;50.042;8.436;2023-10-09T07:27:29;15.13;;;10.75;;
32108;SDS011;18624;50.042;8.436;2023-10-09T07:30:17;16.45;;;10.88;;
32108;SDS011;18624;50.042;8.436;2023-10-09T07:32:58;17.38;;;10.48;;
32108;SDS011;18624;50.042;8.436;2023-10-09T07:35:32;18.00;;;10.45;;
32108;SDS011;18624;50.042;8.436;2023-10-09T07:38:11;19.25;;;10.73;;
32108;SDS011;18624;50.042;8.436;2023-10-09T07:40:49;19.88;;;10.65;;
32108;SDS011;18624;50.042;8.436;2023-10-09T07:43:46;18.08;;;11.30;;
32108;SDS011;18624;50.042;8.436;2023-10-09T07:46:22;21.00;;;11.13;;
32108;SDS011;18624;50.042;8.436;2023-10-09T07:49:18;22.73;;;11.75;;
32108;SDS011;18624;50.042;8.436;2023-10-09T07:54:19;21.95;;;11.45;;
32108;SDS011;18624;50.042;8.436;2023-10-09T07:57:02;24.15;;;11.85;;
32108;SDS011;18624;50.042;8.436;2023-10-09T07:59:35;26.38;;;12.18;;
32108;SDS011;18624;50.042;8.436;2023-10-09T08:02:07;24.08;;;12.15;;
32108;SDS011;18624;50.042;8.436;2023-10-09T08:04:40;19.65;;;12.80;;
32108;SDS011;18624;50.042;8.436;2023-10-09T08:07:16;25.08;;;12.25;;
32108;SDS011;18624;50.042;8.436;2023-10-09T08:10:06;20.55;;;12.15;;
32108;SDS011;18624;50.042;8.436;2023-10-09T08:12:42;17.73;;;11.70;;
32108;SDS011;18624;50.042;8.436;2023-10-09T08:15:15;17.52;;;10.98;;
32108;SDS011;18624;50.042;8.436;2023-10-09T08:17:50;14.20;;;10.65;;
32108;SDS011;18624;50.042;8.436;2023-10-09T08:20:26;20.17;;;10.80;;
32108;SDS011;18624;50.042;8.436;2023-10-09T08:22:54;17.48;;;11.52;;
32108;SDS011;18624;50.042;8.436;2023-10-09T08:25:23;15.90;;;11.25;;
32108;SDS011;18624;50.042;8.436;2023-10-09T08:28:02;16.15;;;10.43;;
32108;SDS011;18624;50.042;8.436;2023-10-09T08:30:48;17.25;;;10.50;;
32108;SDS011;18624;50.042;8.436;2023-10-09T08:33:17;17.48;;;10.90;;
32108;SDS011;18624;50.042;8.436;2023-10-09T08:35:55;17.63;;;10.90;;
32108;SDS011;18624;50.042;8.436;2023-10-09T08:38:31;18.48;;;10.93;;
32108;SDS011;18624;50.042;8.436;2023-10-09T08:41:08;17.63;;;9.88;;
32108;SDS011;18624;50.042;8.436;2023-10-09T08:46:13;14.85;;;10.07;;
32108;SDS011;18624;50.042;8.436;2023-10-09T08:48:44;15.65;;;10.82;;
32108;SDS011;18624;50.042;8.436;2023-10-09T08:51:11;15.98;;;11.05;;
32108;SDS011;18624;50.042;8.436;2023-10-09T08:53:38;16.58;;;11.23;;
32108;SDS011;18624;50.042;8.436;2023-10-09T08:56:09;20.45;;;11.98;;
32108;SDS011;18624;50.042;8.436;2023-10-09T08:58:37;15.85;;;10.27;;
32108;SDS011;18624;50.042;8.436;2023-10-09T09:01:04;18.45;;;11.32;;
32108;SDS011;18624;50.042;8.436;2023-10-09T09:03:37;21.02;;;11.55;;
32108;SDS011;18624;50.042;8.436;2023-10-09T09:06:09;17.85;;;10.60;;
32108;SDS011;18624;50.042;8.436;2023-10-09T09:08:40;15.90;;;9.70;;
32108;SDS011;18624;50.042;8.436;2023-10-09T09:11:11;19.25;;;10.45;;
32108;SDS011;18624;50.042;8.436;2023-10-09T09:14:04;19.83;;;10.88;;
32108;SDS011;18624;50.042;8.436;2023-10-09T09:16:32;16.60;;;10.70;;
32108;SDS011;18624;50.042;8.436;2023-10-09T09:19:05;15.82;;;9.43;;
32108;SDS011;18624;50.042;8.436;2023-10-09T09:21:57;18.70;;;9.73;;
32108;SDS011;18624;50.042;8.436;2023-10-09T09:24:39;18.85;;;10.73;;
32108;SDS011;18624;50.042;8.436;2023-10-09T09:27:11;18.45;;;10.20;;
32108;SDS011;18624;50.042;8.436;2023-10-09T09:29:57;16.75;;;10.43;;
32108;SDS011;18624;50.042;8.436;2023-10-09T09:32:34;17.95;;;9.40;;
32108;SDS011;18624;50.042;8.436;2023-10-09T09:35:20;15.43;;;9.13;;
32108;SDS011;18624;50.042;8.436;2023-10-09T09:37:52;16.60;;;9.52;;
32108;SDS011;18624;50.042;8.436;2023-10-09T09:40:21;20.73;;;10.38;;
32108;SDS011;18624;50.042;8.436;2023-10-09T09:43:01;18.80;;;10.52;;
32108;SDS011;18624;50.042;8.436;2023-10-09T09:45:34;19.08;;;10.13;;
32108;SDS011;18624;50.042;8.436;2023-10-09T09:48:02;19.48;;;10.70;;
32108;SDS011;18624;50.042;8.436;2023-10-09T09:50:33;16.58;;;10.45;;
32108;SDS011;18624;50.042;8.436;2023-10-09T09:53:03;19.55;;;10.30;;
32108;SDS011;18624;50.042;8.436;2023-10-09T09:55:34;21.67;;;10.80;;
32108;SDS011;18624;50.042;8.436;2023-10-09T09:58:08;18.00;;;9.55;;
32108;SDS011;18624;50.042;8.436;2023-10-09T10:00:45;19.23;;;10.63;;
32108;SDS011;18624;50.042;8.436;2023-10-09T10:03:38;25.95;;;11.43;;
32108;SDS011;18624;50.042;8.436;2023-10-09T10:06:09;19.67;;;10.27;;
32108;SDS011;18624;50.042;8.436;2023-10-09T10:08:38;16.65;;;9.13;;
32108;SDS011;18624;50.042;8.436;2023-10-09T10:11:07;19.33;;;10.02;;
32108;SDS011;18624;50.042;8.436;2023-10-09T10:14:14;24.05;;;11.32;;
32108;SDS011;18624;50.042;8.436;2023-10-09T10:17:04;19.38;;;10.80;;
32108;SDS011;18624;50.042;8.436;2023-10-09T10:22:28;17.77;;;10.80;;
32108;SDS011;18624;50.042;8.436;2023-10-09T10:24:57;14.85;;;8.85;;
32108;SDS011;18624;50.042;8.436;2023-10-09T10:27:33;20.95;;;10.18;;
32108;SDS011;18624;50.042;8.436;2023-10-09T10:32:56;18.10;;;9.02;;
32108;SDS011;18624;50.042;8.436;2023-10-09T10:35:25;19.42;;;10.20;;
32108;SDS011;18624;50.042;8.436;2023-10-09T10:38:30;19.20;;;9.35;;
32108;SDS011;18624;50.042;8.436;2023-10-09T10:41:16;19.42;;;9.75;;
32108;SDS011;18624;50.042;8.436;2023-10-09T10:43:44;22.38;;;10.55;;
32108;SDS011;18624;50.042;8.436;2023-10-09T10:46:19;19.45;;;11.55;;
32108;SDS011;18624;50.042;8.436;2023-10-09T10:49:05;19.25;;;10.52;;
32108;SDS011;18624;50.042;8.436;2023-10-09T10:51:42;18.67;;;10.25;;
32108;SDS011;18624;50.042;8.436;2023-10-09T10:54:22;19.45;;;9.48;;
32108;SDS011;18624;50.042;8.436;2023-10-09T10:57:18;28.65;;;10.93;;
32108;SDS011;18624;50.042;8.436;2023-10-09T11:00:17;16.60;;;8.88;;
32108;SDS011;18624;50.042;8.436;2023-10-09T11:03:02;14.95;;;9.32;;
32108;SDS011;18624;50.042;8.436;2023-10-09T11:05:44;15.95;;;8.65;;
32108;SDS011;18624;50.042;8.436;2023-10-09T11:08:23;18.60;;;9.30;;
32108;SDS011;18624;50.042;8.436;2023-10-09T11:10:53;18.50;;;8.75;;
32108;SDS011;18624;50.042;8.436;2023-10-09T11:13:36;16.35;;;8.95;;
32108;SDS011;18624;50.042;8.436;2023-10-09T11:16:18;18.85;;;9.43;;
32108;SDS011;18624;50.042;8.436;2023-10-09T11:19:01;20.50;;;9.80;;
32108;SDS011;18624;50.042;8.436;2023-10-09T11:21:38;17.85;;;8.85;;
32108;SDS011;18624;50.042;8.436;2023-10-09T11:24:08;16.30;;;8.98;;
32108;SDS011;18624;50.042;8.436;2023-10-09T11:26:50;20.05;;;9.85;;
32108;SDS011;18624;50.042;8.436;2023-10-09T11:29:22;15.40;;;8.27;;
32108;SDS011;18624;50.042;8.436;2023-10-09T11:34:28;15.73;;;8.63;;
32108;SDS011;18624;50.042;8.436;2023-10-09T11:36:59;19.65;;;9.00;;
32108;SDS011;18624;50.042;8.436;2023-10-09T11:39:32;16.63;;;7.97;;
32108;SDS011;18624;50.042;8.436;2023-10-09T11:42:02;18.50;;;8.63;;
32108;SDS011;18624;50.042;8.436;2023-10-09T11:47:11;17.73;;;8.18;;
32108;SDS011;18624;50.042;8.436;2023-10-09T11:49:50;16.42;;;8.52;;
32108;SDS011;18624;50.042;8.436;2023-10-09T11:52:27;15.30;;;8.50;;
32108;SDS011;18624;50.042;8.436;2023-10-09T11:54:58;14.30;;;7.82;;
32108;SDS011;18624;50.042;8.436;2023-10-09T11:57:25;13.93;;;9.18;;
32108;SDS011;18624;50.042;8.436;2023-10-09T12:00:06;11.85;;;7.50;;
32108;SDS011;18624;50.042;8.436;2023-10-09T12:02:51;13.85;;;7.97;;
32108;SDS011;18624;50.042;8.436;2023-10-09T12:05:18;16.05;;;8.25;;
32108;SDS011;18624;50.042;8.436;2023-10-09T12:07:46;15.05;;;8.63;;
32108;SDS011;18624;50.042;8.436;2023-10-09T12:10:13;12.90;;;7.25;;
32108;SDS011;18624;50.042;8.436;2023-10-09T12:12:51;15.98;;;8.20;;
32108;SDS011;18624;50.042;8.436;2023-10-09T12:15:31;14.45;;;8.48;;
32108;SDS011;18624;50.042;8.436;2023-10-09T12:18:04;15.65;;;8.93;;
32108;SDS011;18624;50.042;8.436;2023-10-09T12:20:41;13.45;;;8.13;;
32108;SDS011;18624;50.042;8.436;2023-10-09T12:23:08;12.20;;;8.00;;
32108;SDS011;18624;50.042;8.436;2023-10-09T12:25:39;13.13;;;7.38;;
32108;SDS011;18624;50.042;8.436;2023-10-09T12:28:06;15.90;;;9.30;;
32108;SDS011;18624;50.042;8.436;2023-10-09T12:30:36;15.13;;;7.72;;
32108;SDS011;18624;50.042;8.436;2023-10-09T12:33:06;11.60;;;7.45;;
32108;SDS011;18624;50.042;8.436;2023-10-09T12:35:37;12.93;;;8.18;;
32108;SDS011;18624;50.042;8.436;2023-10-09T12:38:05;15.32;;;7.75;;
32108;SDS011;18624;50.042;8.436;2023-10-09T12:40:36;16.27;;;7.65;;
32108;SDS011;18624;50.042;8.436;2023-10-09T12:43:04;9.15;;;6.65;;
32108;SDS011;18624;50.042;8.436;2023-10-09T12:45:35;9.93;;;6.93;;
32108;SDS011;18624;50.042;8.436;2023-10-09T12:48:02;12.20;;;8.20;;
32108;SDS011;18624;50.042;8.436;2023-10-09T12:50:35;12.85;;;7.88;;
32108;SDS011;18624;50.042;8.436;2023-10-09T12:55:35;12.43;;;7.68;;
32108;SDS011;18624;50.042;8.436;2023-10-09T12:58:04;11.80;;;8.18;;
32108;SDS011;18624;50.042;8.436;2023-10-09T13:00:37;11.10;;;7.75;;
32108;SDS011;18624;50.042;8.436;2023-10-09T13:03:11;12.10;;;8.38;;
32108;SDS011;18624;50.042;8.436;2023-10-09T13:05:49;11.18;;;7.38;;
32108;SDS011;18624;50.042;8.436;2023-10-09T13:08:27;11.20;;;7.25;;
32108;SDS011;18624;50.042;8.436;2023-10-09T13:11:04;16.77;;;8.73;;
32108;SDS011;18624;50.042;8.436;2023-10-09T13:13:39;17.80;;;8.52;;
32108;SDS011;18624;50.042;8.436;2023-10-09T13:16:14;14.20;;;8.65;;
32108;SDS011;18624;50.042;8.436;2023-10-09T13:18:53;18.98;;;9.43;;
32108;SDS011;18624;50.042;8.436;2023-10-09T13:21:21;15.98;;;8.52;;
32108;SDS011;18624;50.042;8.436;2023-10-09T13:23:49;15.95;;;8.10;;
32108;SDS011;18624;50.042;8.436;2023-10-09T13:26:17;17.20;;;8.27;;
32108;SDS011;18624;50.042;8.436;2023-10-09T13:28:48;15.07;;;8.20;;
32108;SDS011;18624;50.042;8.436;2023-10-09T13:31:16;15.20;;;8.88;;
32108;SDS011;18624;50.042;8.436;2023-10-09T13:33:44;13.88;;;7.82;;
32108;SDS011;18624;50.042;8.436;2023-10-09T13:36:11;13.95;;;7.75;;
32108;SDS011;18624;50.042;8.436;2023-10-09T13:38:59;13.02;;;7.55;;
32108;SDS011;18624;50.042;8.436;2023-10-09T13:41:55;17.05;;;8.10;;
32108;SDS011;18624;50.042;8.436;2023-10-09T13:44:30;16.88;;;8.82;;
32108;SDS011;18624;50.042;8.436;2023-10-09T13:46:58;14.02;;;8.02;;
32108;SDS011;18624;50.042;8.436;2023-10-09T13:49:32;13.82;;;8.15;;
32108;SDS011;18624;50.042;8.436;2023-10-09T13:52:00;16.42;;;8.43;;
32108;SDS011;18624;50.042;8.436;2023-10-09T13:54:28;17.33;;;8.20;;
32108;SDS011;18624;50.042;8.436;2023-10-09T13:57:02;14.23;;;7.72;;
32108;SDS011;18624;50.042;8.436;2023-10-09T13:59:34;13.90;;;8.10;;
32108;SDS011;18624;50.042;8.436;2023-10-09T14:02:02;15.02;;;8.88;;
32108;SDS011;18624;50.042;8.436;2023-10-09T14:04:36;14.98;;;8.18;;
32108;SDS011;18624;50.042;8.436;2023-10-09T14:07:02;14.73;;;8.40;;
32108;SDS011;18624;50.042;8.436;2023-10-09T14:09:32;14.80;;;8.40;;
32108;SDS011;18624;50.042;8.436;2023-10-09T14:12:05;13.23;;;8.23;;
32108;SDS011;18624;50.042;8.436;2023-10-09T14:14:36;15.82;;;8.63;;
32108;SDS011;18624;50.042;8.436;2023-10-09T14:17:13;14.40;;;8.00;;
32108;SDS011;18624;50.042;8.436;2023-10-09T14:19:54;14.32;;;8.55;;
32108;SDS011;18624;50.042;8.436;2023-10-09T14:22:24;15.35;;;9.30;;
32108;SDS011;18624;50.042;8.436;2023-10-09T14:24:53;17.77;;;9.68;;
32108;SDS011;18624;50.042;8.436;2023-10-09T14:27:24;19.42;;;10.68;;
32108;SDS011;18624;50.042;8.436;2023-10-09T14:29:53;17.13;;;9.02;;
32108;SDS011;18624;50.042;8.436;2023-10-09T14:32:26;17.13;;;9.52;;
32108;SDS011;18624;50.042;8.436;2023-10-09T14:35:00;15.88;;;8.80;;
32108;SDS011;18624;50.042;8.436;2023-10-09T14:37:28;15.48;;;8.45;;
32108;SDS011;18624;50.042;8.436;2023-10-09T14:39:55;13.70;;;8.43;;
32108;SDS011;18624;50.042;8.436;2023-10-09T14:42:22;15.15;;;8.63;;
32108;SDS011;18624;50.042;8.436;2023-10-09T14:44:53;17.05;;;8.00;;
32108;SDS011;18624;50.042;8.436;2023-10-09T14:47:21;18.08;;;8.27;;
32108;SDS011;18624;50.042;8.436;2023-10-09T14:49:48;17.20;;;7.82;;
32108;SDS011;18624;50.042;8.436;2023-10-09T14:52:15;15.60;;;8.63;;
32108;SDS011;18624;50.042;8.436;2023-10-09T14:54:46;16.65;;;8.43;;
32108;SDS011;18624;50.042;8.436;2023-10-09T14:57:13;15.20;;;8.85;;
32108;SDS011;18624;50.042;8.436;2023-10-09T14:59:40;15.50;;;7.93;;
32108;SDS011;18624;50.042;8.436;2023-10-09T15:02:09;17.67;;;9.88;;
32108;SDS011;18624;50.042;8.436;2023-10-09T15:04:38;13.30;;;8.70;;
32108;SDS011;18624;50.042;8.436;2023-10-09T15:07:05;14.10;;;7.78;;
32108;SDS011;18624;50.042;8.436;2023-10-09T15:09:33;17.90;;;9.38;;
32108;SDS011;18624;50.042;8.436;2023-10-09T15:12:03;15.55;;;8.85;;
32108;SDS011;18624;50.042;8.436;2023-10-09T15:14:33;15.73;;;7.80;;
32108;SDS011;18624;50.042;8.436;2023-10-09T15:17:00;15.50;;;8.63;;
32108;SDS011;18624;50.042;8.436;2023-10-09T15:19:29;15.15;;;8.50;;
32108;SDS011;18624;50.042;8.436;2023-10-09T15:21:56;12.38;;;7.72;;
32108;SDS011;18624;50.042;8.436;2023-10-09T15:24:24;15.07;;;8.70;;
32108;SDS011;18624;50.042;8.436;2023-10-09T15:26:53;14.75;;;8.27;;
32108;SDS011;18624;50.042;8.436;2023-10-09T15:29:24;16.67;;;8.93;;
32108;SDS011;18624;50.042;8.436;2023-10-09T15:32:00;12.77;;;8.15;;
32108;SDS011;18624;50.042;8.436;2023-10-09T15:34:32;13.73;;;7.78;;
32108;SDS011;18624;50.042;8.436;2023-10-09T15:37:01;13.55;;;8.13;;